KFPRMBPV

Guest
Details From KFPR - St Lucie Co Intl
To MBPV - Providenciales
Flight Number -
Tags decoded
Created
Modified
Stats Distance 567 nm / 1,050 km
Max Altitude 0 ft / 0 m
Waypoints 5
Social Downloads 3
Likes 0
Share VATSIM

Download

Looking for another format? Having issues loading an existing format? Contact us
Advertisement - Login to hide

Notes

Requested: KFPR ZFP BR1L BRRGO L463 BTLER MBPV Unmatched points: BR1L L463

Route

KFPR ZFP BRRGO BTLER MBPV

ID Type Via Altitude Latitude Longitude Leg Dist Tot Dist Heading (true) Name
O KFPR APT - 0 ft / 0 m 27.49466˚ -80.36807˚ - 0 nm - St Lucie Co Intl
ZFP VOR - 0 ft / 0 m 26.55536˚ -78.69786˚ 105 nm 105 nm 122° / 123° FREEPORT VOR-DME
BRRGO FIX - 0 ft / 0 m 24.41667˚ -74.56553˚ 258 nm 363 nm 119° / 121° -
BTLER FIX - 0 ft / 0 m 22.23917˚ -72.66861˚ 167 nm 531 nm 141° / 142° -
O MBPV APT - 0 ft / 0 m 21.77360˚ -72.26590˚ 35 nm 567 nm 141° / 141° Providenciales

Altitude Profile

Advertisement - Login to hide

Weather


0- 5 10 15 20 25 30 35+ Temperature / ° C

Clouds and Precipitation
Forecast for 2017-12-11 12:00 UTC. Updated 42 minutes ago

Ground ~20,000 ft ~40,000 ft Winds

KFPR

Details ICAO KFPR (FRP)
Name St Lucie Co Intl
Region United States
Timezone America/New_York (UTC-5.0)
Stats Elevation 23 ft / 7 m (AMSL)
Location 27.494664° -80.368073°
Runways 2
Magnetic Variation 6.848° W

METAR

KFPR 111153Z 29003KT 10SM CLR 03/03 A3029 RMK AO2 SLP257 T00330033 10061 20033 53007

Decode

TAF

TAF KFPR 111120Z 1112/1212 31003KT P6SM SKC FM111500 34007KT P6SM SKC FM111900 01008KT P6SM SKC FM112100 04007KT P6SM SKC FM112300 VRB03KT P6SM SKC

Decode

Departure Runways

ID Width Length Bearing (true) Bearing (mag) Surface Threshold Offset Overrun Length
09 150 ft / 46 m 6,481 ft / 1,975 m 90.47° 97.32° Asphalt 0 ft / 0 m 200 ft / 61 m
14 100 ft / 30 m 4,762 ft / 1,451 m 135.63° 142.48° Asphalt 0 ft / 0 m 0 ft / 0 m
27 150 ft / 46 m 6,481 ft / 1,975 m 270.48° 277.33° Asphalt 0 ft / 0 m 200 ft / 61 m
32 100 ft / 30 m 4,762 ft / 1,451 m 315.63° 322.48° Asphalt 0 ft / 0 m 0 ft / 0 m

MBPV

Details ICAO MBPV (PLS)
Name Providenciales
Region Turks and Caicos Islands
Timezone America/Grand_Turk (UTC-4.0)
Stats Elevation 15 ft / 5 m (AMSL)
Location 21.773600° -72.265900°
Runways 1
Magnetic Variation 10.608° W

METAR

MBPV 111100Z 09005KT 9999 SCT015 24/// Q1014

Decode

TAF

TAF MBPV 110400Z 1106/1206 06006KT 9999 SCT020 BKN080 PROB30 1108/1118 7000 SHRA BKN018

Decode

Destination Runways

ID Width Length Bearing (true) Bearing (mag) Surface Threshold Offset Overrun Length
10 148 ft / 45 m 7,584 ft / 2,312 m 93.01° 103.62° Asphalt 600 ft / 183 m 200 ft / 61 m
28 148 ft / 45 m 7,584 ft / 2,312 m 273.02° 283.63° Asphalt 0 ft / 0 m 200 ft / 61 m

Popular Alternatives